KDCM

Chester Catawba Regional Airport

Chester, South Carolina, USA
METAR KDCM 161035Z AUTO 00000KT 10SM CLR M02/M05 A3021 RMK AO2
Observed Flight Rules
Dec-16 @ 10:35 UTC (35 minutes ago) Visual Flight Rules
Wind Visibility Clouds
Calm 10 miles
  • Clear skies
Temperatures Readings
Current -2°C / 28°F
Dewpoint -5°C / 23°F
Humidity 80%
Altimeter 30.21" Hg
Pressure 1023 hPa
Elevation 200
METAR KDCM 161035Z AUTO 00000KT 10SM CLR M02/M05 A3021 RMK AO2
Observed Flight Rules
Dec-16 @ 10:35 UTC
(35 minutes ago)
VFR
Wind Visibility
Calm 10 miles
Clouds
  • Clear skies
Temperature Dewpoint
-2°C / 28°F -5°C / 23°F
Humidity Altimeter Pressure
80% 30.21" Hg 1023 hPa